sensor_id;sensor_type;location;lat;lon;timestamp;temperature;humidity
33837;DHT22;20140;49.356;8.812;2024-03-08T00:01:15;4.60;99.90
33837;DHT22;20140;49.356;8.812;2024-03-08T00:03:42;4.60;99.90
33837;DHT22;20140;49.356;8.812;2024-03-08T00:06:07;4.50;99.90
33837;DHT22;20140;49.356;8.812;2024-03-08T00:08:32;4.50;99.90
33837;DHT22;20140;49.356;8.812;2024-03-08T00:10:58;4.40;99.90
33837;DHT22;20140;49.356;8.812;2024-03-08T00:13:24;4.40;99.90
33837;DHT22;20140;49.356;8.812;2024-03-08T00:15:50;4.40;99.90
33837;DHT22;20140;49.356;8.812;2024-03-08T00:18:16;4.30;99.90
33837;DHT22;20140;49.356;8.812;2024-03-08T00:20:41;4.20;99.90
33837;DHT22;20140;49.356;8.812;2024-03-08T00:23:07;4.20;99.90
33837;DHT22;20140;49.356;8.812;2024-03-08T00:25:32;4.20;99.90
33837;DHT22;20140;49.356;8.812;2024-03-08T00:27:59;4.10;99.90
33837;DHT22;20140;49.356;8.812;2024-03-08T00:30:25;4.10;99.90
33837;DHT22;20140;49.356;8.812;2024-03-08T00:32:50;4.10;99.90
33837;DHT22;20140;49.356;8.812;2024-03-08T00:35:16;4.10;99.90
33837;DHT22;20140;49.356;8.812;2024-03-08T00:37:41;4.10;99.90
33837;DHT22;20140;49.356;8.812;2024-03-08T00:40:07;4.00;99.90
33837;DHT22;20140;49.356;8.812;2024-03-08T00:42:34;4.00;99.90
33837;DHT22;20140;49.356;8.812;2024-03-08T00:44:59;3.90;99.90
33837;DHT22;20140;49.356;8.812;2024-03-08T00:47:25;3.90;99.90
33837;DHT22;20140;49.356;8.812;2024-03-08T00:49:50;3.80;99.90
33837;DHT22;20140;49.356;8.812;2024-03-08T00:52:16;3.80;99.90
33837;DHT22;20140;49.356;8.812;2024-03-08T00:54:43;3.70;99.90
33837;DHT22;20140;49.356;8.812;2024-03-08T00:57:09;3.70;99.90
33837;DHT22;20140;49.356;8.812;2024-03-08T00:59:34;3.70;99.90
33837;DHT22;20140;49.356;8.812;2024-03-08T01:02:00;3.70;99.90
33837;DHT22;20140;49.356;8.812;2024-03-08T01:04:25;3.70;99.90
33837;DHT22;20140;49.356;8.812;2024-03-08T01:06:54;3.60;99.90
33837;DHT22;20140;49.356;8.812;2024-03-08T01:09:22;3.60;99.90
33837;DHT22;20140;49.356;8.812;2024-03-08T01:11:47;3.60;99.90
33837;DHT22;20140;49.356;8.812;2024-03-08T01:14:13;3.60;99.90
33837;DHT22;20140;49.356;8.812;2024-03-08T01:16:38;3.50;99.90
33837;DHT22;20140;49.356;8.812;2024-03-08T01:21:29;3.50;99.90
33837;DHT22;20140;49.356;8.812;2024-03-08T01:23:57;3.50;99.90
33837;DHT22;20140;49.356;8.812;2024-03-08T01:26:22;3.50;99.90
33837;DHT22;20140;49.356;8.812;2024-03-08T01:28:49;3.40;99.90
33837;DHT22;20140;49.356;8.812;2024-03-08T01:31:14;3.40;99.90
33837;DHT22;20140;49.356;8.812;2024-03-08T01:33:39;3.40;99.90
33837;DHT22;20140;49.356;8.812;2024-03-08T01:36:05;3.40;99.90
33837;DHT22;20140;49.356;8.812;2024-03-08T01:38:31;3.40;99.90
33837;DHT22;20140;49.356;8.812;2024-03-08T01:40:56;3.30;99.90
33837;DHT22;20140;49.356;8.812;2024-03-08T01:43:22;3.30;99.90
33837;DHT22;20140;49.356;8.812;2024-03-08T01:45:50;3.20;99.90
33837;DHT22;20140;49.356;8.812;2024-03-08T01:48:16;3.20;99.90
33837;DHT22;20140;49.356;8.812;2024-03-08T01:50:43;3.10;99.90
33837;DHT22;20140;49.356;8.812;2024-03-08T01:53:08;3.20;99.90
33837;DHT22;20140;49.356;8.812;2024-03-08T01:55:35;3.20;99.90
33837;DHT22;20140;49.356;8.812;2024-03-08T01:58:03;3.20;99.90
33837;DHT22;20140;49.356;8.812;2024-03-08T02:00:28;3.10;99.90
33837;DHT22;20140;49.356;8.812;2024-03-08T02:02:55;3.10;99.90
33837;DHT22;20140;49.356;8.812;2024-03-08T02:05:21;3.10;99.90
33837;DHT22;20140;49.356;8.812;2024-03-08T02:07:46;3.10;99.90
33837;DHT22;20140;49.356;8.812;2024-03-08T02:10:12;3.00;99.90
33837;DHT22;20140;49.356;8.812;2024-03-08T02:12:40;3.10;99.90
33837;DHT22;20140;49.356;8.812;2024-03-08T02:15:06;3.00;99.90
33837;DHT22;20140;49.356;8.812;2024-03-08T02:17:32;3.00;99.90
33837;DHT22;20140;49.356;8.812;2024-03-08T02:20:01;3.00;99.90
33837;DHT22;20140;49.356;8.812;2024-03-08T02:22:28;2.90;99.90
33837;DHT22;20140;49.356;8.812;2024-03-08T02:24:54;2.90;99.90
33837;DHT22;20140;49.356;8.812;2024-03-08T02:27:23;2.90;99.90
33837;DHT22;20140;49.356;8.812;2024-03-08T02:29:49;2.90;99.90
33837;DHT22;20140;49.356;8.812;2024-03-08T02:32:15;2.90;99.90
33837;DHT22;20140;49.356;8.812;2024-03-08T02:34:41;2.90;99.90
33837;DHT22;20140;49.356;8.812;2024-03-08T02:37:06;2.90;99.90
33837;DHT22;20140;49.356;8.812;2024-03-08T02:39:33;2.90;99.90
33837;DHT22;20140;49.356;8.812;2024-03-08T02:41:59;2.80;99.90
33837;DHT22;20140;49.356;8.812;2024-03-08T02:44:24;2.80;99.90
33837;DHT22;20140;49.356;8.812;2024-03-08T02:46:50;2.70;99.90
33837;DHT22;20140;49.356;8.812;2024-03-08T02:49:15;2.70;99.90
33837;DHT22;20140;49.356;8.812;2024-03-08T02:51:41;2.70;99.90
33837;DHT22;20140;49.356;8.812;2024-03-08T02:54:07;2.70;99.90
33837;DHT22;20140;49.356;8.812;2024-03-08T02:56:33;2.60;99.90
33837;DHT22;20140;49.356;8.812;2024-03-08T02:59:00;2.60;99.90
33837;DHT22;20140;49.356;8.812;2024-03-08T03:01:25;2.60;99.90
33837;DHT22;20140;49.356;8.812;2024-03-08T03:03:51;2.60;99.90
33837;DHT22;20140;49.356;8.812;2024-03-08T03:06:17;2.60;99.90
33837;DHT22;20140;49.356;8.812;2024-03-08T03:08:46;2.50;99.90
33837;DHT22;20140;49.356;8.812;2024-03-08T03:11:12;2.50;99.90
33837;DHT22;20140;49.356;8.812;2024-03-08T03:13:41;2.50;99.90
33837;DHT22;20140;49.356;8.812;2024-03-08T03:16:07;2.50;99.90
33837;DHT22;20140;49.356;8.812;2024-03-08T03:18:33;2.50;99.90
33837;DHT22;20140;49.356;8.812;2024-03-08T03:20:58;2.40;99.90
33837;DHT22;20140;49.356;8.812;2024-03-08T03:23:24;2.40;99.90
33837;DHT22;20140;49.356;8.812;2024-03-08T03:25:51;2.30;99.90
33837;DHT22;20140;49.356;8.812;2024-03-08T03:28:17;2.30;99.90
33837;DHT22;20140;49.356;8.812;2024-03-08T03:30:44;2.30;99.90
33837;DHT22;20140;49.356;8.812;2024-03-08T03:33:11;2.20;99.90
33837;DHT22;20140;49.356;8.812;2024-03-08T03:35:37;2.20;99.90
33837;DHT22;20140;49.356;8.812;2024-03-08T03:38:03;2.10;99.90
33837;DHT22;20140;49.356;8.812;2024-03-08T03:40:38;2.20;99.90
33837;DHT22;20140;49.356;8.812;2024-03-08T03:43:04;2.10;99.90
33837;DHT22;20140;49.356;8.812;2024-03-08T03:45:32;2.20;99.90
33837;DHT22;20140;49.356;8.812;2024-03-08T03:48:07;2.10;99.90
33837;DHT22;20140;49.356;8.812;2024-03-08T03:50:34;2.10;99.90
33837;DHT22;20140;49.356;8.812;2024-03-08T03:52:59;2.10;99.90
33837;DHT22;20140;49.356;8.812;2024-03-08T03:55:25;2.10;99.90
33837;DHT22;20140;49.356;8.812;2024-03-08T03:57:50;2.00;99.90
33837;DHT22;20140;49.356;8.812;2024-03-08T04:00:16;2.10;99.90
33837;DHT22;20140;49.356;8.812;2024-03-08T04:02:42;2.10;99.90
33837;DHT22;20140;49.356;8.812;2024-03-08T04:05:07;2.10;99.90
33837;DHT22;20140;49.356;8.812;2024-03-08T04:07:33;2.20;99.90
33837;DHT22;20140;49.356;8.812;2024-03-08T04:10:00;2.10;99.90
33837;DHT22;20140;49.356;8.812;2024-03-08T04:12:26;2.10;99.90
33837;DHT22;20140;49.356;8.812;2024-03-08T04:14:51;2.10;99.90
33837;DHT22;20140;49.356;8.812;2024-03-08T04:17:18;2.00;99.90
33837;DHT22;20140;49.356;8.812;2024-03-08T04:19:44;2.00;99.90
33837;DHT22;20140;49.356;8.812;2024-03-08T04:22:09;2.00;99.90
33837;DHT22;20140;49.356;8.812;2024-03-08T04:24:34;2.00;99.90
33837;DHT22;20140;49.356;8.812;2024-03-08T04:27:00;1.90;99.90
33837;DHT22;20140;49.356;8.812;2024-03-08T04:29:26;1.90;99.90
33837;DHT22;20140;49.356;8.812;2024-03-08T04:31:52;1.90;99.90
33837;DHT22;20140;49.356;8.812;2024-03-08T04:34:21;1.90;99.90
33837;DHT22;20140;49.356;8.812;2024-03-08T04:36:47;1.90;99.90
33837;DHT22;20140;49.356;8.812;2024-03-08T04:39:13;1.90;99.90
33837;DHT22;20140;49.356;8.812;2024-03-08T04:41:39;1.90;99.90
33837;DHT22;20140;49.356;8.812;2024-03-08T04:44:04;1.80;99.90
33837;DHT22;20140;49.356;8.812;2024-03-08T04:46:30;1.80;99.90
33837;DHT22;20140;49.356;8.812;2024-03-08T04:48:56;1.70;99.90
33837;DHT22;20140;49.356;8.812;2024-03-08T04:51:22;1.70;99.90
33837;DHT22;20140;49.356;8.812;2024-03-08T04:53:47;1.70;99.90
33837;DHT22;20140;49.356;8.812;2024-03-08T04:56:13;1.70;99.90
33837;DHT22;20140;49.356;8.812;2024-03-08T04:58:38;1.70;99.90
33837;DHT22;20140;49.356;8.812;2024-03-08T05:01:03;1.70;99.90
33837;DHT22;20140;49.356;8.812;2024-03-08T05:03:29;1.70;99.90
33837;DHT22;20140;49.356;8.812;2024-03-08T05:05:55;1.70;99.90
33837;DHT22;20140;49.356;8.812;2024-03-08T05:08:21;1.70;99.90
33837;DHT22;20140;49.356;8.812;2024-03-08T05:10:49;1.60;99.90
33837;DHT22;20140;49.356;8.812;2024-03-08T05:13:14;1.60;99.90
33837;DHT22;20140;49.356;8.812;2024-03-08T05:15:41;1.60;99.90
33837;DHT22;20140;49.356;8.812;2024-03-08T05:18:07;1.60;99.90
33837;DHT22;20140;49.356;8.812;2024-03-08T05:20:33;1.60;99.90
33837;DHT22;20140;49.356;8.812;2024-03-08T05:22:59;1.60;99.90
33837;DHT22;20140;49.356;8.812;2024-03-08T05:25:25;1.60;99.90
33837;DHT22;20140;49.356;8.812;2024-03-08T05:27:51;1.60;99.90
33837;DHT22;20140;49.356;8.812;2024-03-08T05:30:17;1.50;99.90
33837;DHT22;20140;49.356;8.812;2024-03-08T05:32:42;1.50;99.90
33837;DHT22;20140;49.356;8.812;2024-03-08T05:35:11;1.50;99.90
33837;DHT22;20140;49.356;8.812;2024-03-08T05:37:37;1.50;99.90
33837;DHT22;20140;49.356;8.812;2024-03-08T05:40:03;1.60;99.90
33837;DHT22;20140;49.356;8.812;2024-03-08T05:42:34;1.60;99.90
33837;DHT22;20140;49.356;8.812;2024-03-08T05:44:59;1.50;99.90
33837;DHT22;20140;49.356;8.812;2024-03-08T05:47:24;1.60;99.90
33837;DHT22;20140;49.356;8.812;2024-03-08T05:49:50;1.50;99.90
33837;DHT22;20140;49.356;8.812;2024-03-08T05:52:15;1.50;99.90
33837;DHT22;20140;49.356;8.812;2024-03-08T05:54:41;1.50;99.90
33837;DHT22;20140;49.356;8.812;2024-03-08T05:57:06;1.50;99.90
33837;DHT22;20140;49.356;8.812;2024-03-08T05:59:32;1.50;99.90
33837;DHT22;20140;49.356;8.812;2024-03-08T06:01:57;1.50;99.90
33837;DHT22;20140;49.356;8.812;2024-03-08T06:04:23;1.50;99.90
33837;DHT22;20140;49.356;8.812;2024-03-08T06:06:48;1.50;99.90
33837;DHT22;20140;49.356;8.812;2024-03-08T06:09:13;1.50;99.90
33837;DHT22;20140;49.356;8.812;2024-03-08T06:11:42;1.50;99.90
33837;DHT22;20140;49.356;8.812;2024-03-08T06:14:08;1.50;99.90
33837;DHT22;20140;49.356;8.812;2024-03-08T06:16:33;1.50;99.90
33837;DHT22;20140;49.356;8.812;2024-03-08T06:19:01;1.50;99.90
33837;DHT22;20140;49.356;8.812;2024-03-08T06:21:29;1.50;99.90
33837;DHT22;20140;49.356;8.812;2024-03-08T06:23:54;1.50;99.90
33837;DHT22;20140;49.356;8.812;2024-03-08T06:26:26;1.50;99.90
33837;DHT22;20140;49.356;8.812;2024-03-08T06:28:54;1.50;99.90
33837;DHT22;20140;49.356;8.812;2024-03-08T06:31:19;1.50;99.90
33837;DHT22;20140;49.356;8.812;2024-03-08T06:33:45;1.60;99.90
33837;DHT22;20140;49.356;8.812;2024-03-08T06:36:10;1.60;99.90
33837;DHT22;20140;49.356;8.812;2024-03-08T06:38:40;1.60;99.90
33837;DHT22;20140;49.356;8.812;2024-03-08T06:41:11;1.60;99.90
33837;DHT22;20140;49.356;8.812;2024-03-08T06:43:41;1.60;99.90
33837;DHT22;20140;49.356;8.812;2024-03-08T06:46:07;1.60;99.90
33837;DHT22;20140;49.356;8.812;2024-03-08T06:48:32;1.70;99.90
33837;DHT22;20140;49.356;8.812;2024-03-08T06:50:58;1.70;99.90
33837;DHT22;20140;49.356;8.812;2024-03-08T06:53:23;1.70;99.90
33837;DHT22;20140;49.356;8.812;2024-03-08T06:55:50;1.80;99.90
33837;DHT22;20140;49.356;8.812;2024-03-08T06:58:15;1.80;99.90
33837;DHT22;20140;49.356;8.812;2024-03-08T07:00:41;1.80;99.90
33837;DHT22;20140;49.356;8.812;2024-03-08T07:03:08;1.90;99.90
33837;DHT22;20140;49.356;8.812;2024-03-08T07:05:33;1.90;99.90
33837;DHT22;20140;49.356;8.812;2024-03-08T07:08:00;2.00;99.90
33837;DHT22;20140;49.356;8.812;2024-03-08T07:10:25;2.00;99.90
33837;DHT22;20140;49.356;8.812;2024-03-08T07:12:51;2.00;99.90
33837;DHT22;20140;49.356;8.812;2024-03-08T07:15:16;2.00;99.90
33837;DHT22;20140;49.356;8.812;2024-03-08T07:17:45;2.10;99.90
33837;DHT22;20140;49.356;8.812;2024-03-08T07:20:10;2.10;99.90
33837;DHT22;20140;49.356;8.812;2024-03-08T07:22:38;2.10;99.90
33837;DHT22;20140;49.356;8.812;2024-03-08T07:25:06;2.20;99.90
33837;DHT22;20140;49.356;8.812;2024-03-08T07:27:35;2.20;99.90
33837;DHT22;20140;49.356;8.812;2024-03-08T07:30:02;2.30;99.90
33837;DHT22;20140;49.356;8.812;2024-03-08T07:32:27;2.40;99.90
33837;DHT22;20140;49.356;8.812;2024-03-08T07:34:55;2.50;99.90
33837;DHT22;20140;49.356;8.812;2024-03-08T07:37:21;2.50;99.90
33837;DHT22;20140;49.356;8.812;2024-03-08T07:39:46;2.50;99.90
33837;DHT22;20140;49.356;8.812;2024-03-08T07:42:12;2.50;99.90
33837;DHT22;20140;49.356;8.812;2024-03-08T07:44:38;2.70;99.90
33837;DHT22;20140;49.356;8.812;2024-03-08T07:47:03;2.70;99.90
33837;DHT22;20140;49.356;8.812;2024-03-08T07:49:29;2.70;99.90
33837;DHT22;20140;49.356;8.812;2024-03-08T07:51:57;2.80;99.90
33837;DHT22;20140;49.356;8.812;2024-03-08T07:54:23;2.80;99.90
33837;DHT22;20140;49.356;8.812;2024-03-08T07:56:48;2.80;99.90
33837;DHT22;20140;49.356;8.812;2024-03-08T07:59:16;2.90;99.90
33837;DHT22;20140;49.356;8.812;2024-03-08T08:01:41;2.90;99.90
33837;DHT22;20140;49.356;8.812;2024-03-08T08:04:06;3.00;99.90
33837;DHT22;20140;49.356;8.812;2024-03-08T08:06:35;3.00;99.90
33837;DHT22;20140;49.356;8.812;2024-03-08T08:09:03;3.00;99.90
33837;DHT22;20140;49.356;8.812;2024-03-08T08:11:28;3.10;99.90
33837;DHT22;20140;49.356;8.812;2024-03-08T08:13:54;3.10;99.90
33837;DHT22;20140;49.356;8.812;2024-03-08T08:16:23;3.10;99.90
33837;DHT22;20140;49.356;8.812;2024-03-08T08:18:48;3.20;99.90
33837;DHT22;20140;49.356;8.812;2024-03-08T08:21:15;3.20;99.90
33837;DHT22;20140;49.356;8.812;2024-03-08T08:23:40;3.30;99.90
33837;DHT22;20140;49.356;8.812;2024-03-08T08:26:06;3.40;99.90
33837;DHT22;20140;49.356;8.812;2024-03-08T08:28:33;3.40;99.90
33837;DHT22;20140;49.356;8.812;2024-03-08T08:30:58;3.50;99.90
33837;DHT22;20140;49.356;8.812;2024-03-08T08:33:25;3.60;99.90
33837;DHT22;20140;49.356;8.812;2024-03-08T08:35:51;3.60;99.90
33837;DHT22;20140;49.356;8.812;2024-03-08T08:38:19;3.70;99.90
33837;DHT22;20140;49.356;8.812;2024-03-08T08:40:45;3.80;99.90
33837;DHT22;20140;49.356;8.812;2024-03-08T08:43:13;3.90;99.90
33837;DHT22;20140;49.356;8.812;2024-03-08T08:45:39;4.00;99.90
33837;DHT22;20140;49.356;8.812;2024-03-08T08:48:05;4.10;99.90
33837;DHT22;20140;49.356;8.812;2024-03-08T08:50:30;4.20;99.90
33837;DHT22;20140;49.356;8.812;2024-03-08T08:52:56;4.40;99.90
33837;DHT22;20140;49.356;8.812;2024-03-08T08:55:22;4.50;99.90
33837;DHT22;20140;49.356;8.812;2024-03-08T08:57:50;4.50;99.90
33837;DHT22;20140;49.356;8.812;2024-03-08T09:00:17;4.60;99.90
33837;DHT22;20140;49.356;8.812;2024-03-08T09:02:44;4.70;99.90
33837;DHT22;20140;49.356;8.812;2024-03-08T09:05:09;4.70;99.90
33837;DHT22;20140;49.356;8.812;2024-03-08T09:07:35;4.70;99.90
33837;DHT22;20140;49.356;8.812;2024-03-08T09:10:00;4.70;99.90
33837;DHT22;20140;49.356;8.812;2024-03-08T09:12:26;4.80;99.90
33837;DHT22;20140;49.356;8.812;2024-03-08T09:14:52;4.90;99.90
33837;DHT22;20140;49.356;8.812;2024-03-08T09:17:17;4.90;99.90
33837;DHT22;20140;49.356;8.812;2024-03-08T09:19:49;5.00;99.90
33837;DHT22;20140;49.356;8.812;2024-03-08T09:22:14;5.10;99.90
33837;DHT22;20140;49.356;8.812;2024-03-08T09:24:40;5.20;99.90
33837;DHT22;20140;49.356;8.812;2024-03-08T09:27:05;5.40;99.90
33837;DHT22;20140;49.356;8.812;2024-03-08T09:29:31;5.40;99.90
33837;DHT22;20140;49.356;8.812;2024-03-08T09:31:56;5.60;99.90
33837;DHT22;20140;49.356;8.812;2024-03-08T09:34:22;5.60;99.90
33837;DHT22;20140;49.356;8.812;2024-03-08T09:36:47;5.60;99.90
33837;DHT22;20140;49.356;8.812;2024-03-08T09:39:13;5.60;99.90
33837;DHT22;20140;49.356;8.812;2024-03-08T09:41:42;5.70;99.90
33837;DHT22;20140;49.356;8.812;2024-03-08T09:44:09;5.70;99.90
33837;DHT22;20140;49.356;8.812;2024-03-08T09:46:34;5.80;99.90
33837;DHT22;20140;49.356;8.812;2024-03-08T09:49:00;5.90;99.90
33837;DHT22;20140;49.356;8.812;2024-03-08T09:51:29;6.00;99.90
33837;DHT22;20140;49.356;8.812;2024-03-08T09:53:56;6.00;99.90
33837;DHT22;20140;49.356;8.812;2024-03-08T09:56:23;6.20;99.90
33837;DHT22;20140;49.356;8.812;2024-03-08T09:58:49;6.20;99.90
33837;DHT22;20140;49.356;8.812;2024-03-08T10:01:19;6.10;99.90
33837;DHT22;20140;49.356;8.812;2024-03-08T10:03:46;6.20;99.90
33837;DHT22;20140;49.356;8.812;2024-03-08T10:06:13;6.30;99.90
33837;DHT22;20140;49.356;8.812;2024-03-08T10:08:39;6.50;99.90
33837;DHT22;20140;49.356;8.812;2024-03-08T10:11:05;6.60;99.90
33837;DHT22;20140;49.356;8.812;2024-03-08T10:13:30;6.50;99.90
33837;DHT22;20140;49.356;8.812;2024-03-08T10:15:57;6.60;99.90
33837;DHT22;20140;49.356;8.812;2024-03-08T10:18:23;6.80;99.90
33837;DHT22;20140;49.356;8.812;2024-03-08T10:21:04;6.80;99.90
33837;DHT22;20140;49.356;8.812;2024-03-08T10:23:29;6.80;99.90
33837;DHT22;20140;49.356;8.812;2024-03-08T10:25:55;6.90;99.90
33837;DHT22;20140;49.356;8.812;2024-03-08T10:28:23;6.70;99.90
33837;DHT22;20140;49.356;8.812;2024-03-08T10:30:50;6.80;99.90
33837;DHT22;20140;49.356;8.812;2024-03-08T10:33:15;6.80;99.90
33837;DHT22;20140;49.356;8.812;2024-03-08T10:35:41;6.90;99.90
33837;DHT22;20140;49.356;8.812;2024-03-08T10:38:06;7.10;99.90
33837;DHT22;20140;49.356;8.812;2024-03-08T10:40:34;7.00;99.90
33837;DHT22;20140;49.356;8.812;2024-03-08T10:43:01;7.10;99.90
33837;DHT22;20140;49.356;8.812;2024-03-08T10:45:31;7.10;99.90
33837;DHT22;20140;49.356;8.812;2024-03-08T10:48:04;7.40;99.90
33837;DHT22;20140;49.356;8.812;2024-03-08T10:50:29;7.30;99.90
33837;DHT22;20140;49.356;8.812;2024-03-08T10:52:55;7.50;99.90
33837;DHT22;20140;49.356;8.812;2024-03-08T10:55:22;7.80;99.90
33837;DHT22;20140;49.356;8.812;2024-03-08T10:57:48;7.60;99.90
33837;DHT22;20140;49.356;8.812;2024-03-08T11:00:13;7.50;99.90
33837;DHT22;20140;49.356;8.812;2024-03-08T11:02:42;7.90;99.90
33837;DHT22;20140;49.356;8.812;2024-03-08T11:05:15;7.80;99.90
33837;DHT22;20140;49.356;8.812;2024-03-08T11:07:46;7.90;99.90
33837;DHT22;20140;49.356;8.812;2024-03-08T11:10:19;7.90;99.90
33837;DHT22;20140;49.356;8.812;2024-03-08T11:12:45;8.10;99.90
33837;DHT22;20140;49.356;8.812;2024-03-08T11:15:12;7.80;99.90
33837;DHT22;20140;49.356;8.812;2024-03-08T11:17:47;7.70;99.90
33837;DHT22;20140;49.356;8.812;2024-03-08T11:20:19;7.90;99.90
33837;DHT22;20140;49.356;8.812;2024-03-08T11:22:55;7.80;99.90
33837;DHT22;20140;49.356;8.812;2024-03-08T11:30:33;8.10;99.90
33837;DHT22;20140;49.356;8.812;2024-03-08T11:33:00;8.10;99.90
33837;DHT22;20140;49.356;8.812;2024-03-08T11:35:26;8.30;99.90
33837;DHT22;20140;49.356;8.812;2024-03-08T11:37:52;8.40;99.90
33837;DHT22;20140;49.356;8.812;2024-03-08T11:40:18;8.70;99.90
33837;DHT22;20140;49.356;8.812;2024-03-08T11:42:45;8.70;99.90
33837;DHT22;20140;49.356;8.812;2024-03-08T11:45:12;8.50;99.90
33837;DHT22;20140;49.356;8.812;2024-03-08T11:47:41;8.80;99.90
33837;DHT22;20140;49.356;8.812;2024-03-08T11:50:07;8.80;99.90
33837;DHT22;20140;49.356;8.812;2024-03-08T11:52:36;8.60;99.90
33837;DHT22;20140;49.356;8.812;2024-03-08T11:55:01;8.90;99.90
33837;DHT22;20140;49.356;8.812;2024-03-08T11:57:27;9.20;99.90
33837;DHT22;20140;49.356;8.812;2024-03-08T11:59:54;9.40;99.90
33837;DHT22;20140;49.356;8.812;2024-03-08T12:02:20;9.30;99.90
33837;DHT22;20140;49.356;8.812;2024-03-08T12:04:47;9.30;99.90
33837;DHT22;20140;49.356;8.812;2024-03-08T12:07:12;9.30;99.90
33837;DHT22;20140;49.356;8.812;2024-03-08T12:09:40;9.60;99.90
33837;DHT22;20140;49.356;8.812;2024-03-08T12:12:06;9.60;99.90
33837;DHT22;20140;49.356;8.812;2024-03-08T12:14:33;9.40;99.90
33837;DHT22;20140;49.356;8.812;2024-03-08T12:16:58;9.80;99.90
33837;DHT22;20140;49.356;8.812;2024-03-08T12:19:27;10.00;99.90
33837;DHT22;20140;49.356;8.812;2024-03-08T12:21:53;10.10;99.90
33837;DHT22;20140;49.356;8.812;2024-03-08T12:24:19;10.40;99.90
33837;DHT22;20140;49.356;8.812;2024-03-08T12:26:45;10.50;99.90
33837;DHT22;20140;49.356;8.812;2024-03-08T12:31:42;10.10;99.90
33837;DHT22;20140;49.356;8.812;2024-03-08T12:34:07;10.70;99.90
33837;DHT22;20140;49.356;8.812;2024-03-08T12:36:35;10.80;99.90
33837;DHT22;20140;49.356;8.812;2024-03-08T12:39:01;11.00;99.90
33837;DHT22;20140;49.356;8.812;2024-03-08T12:41:29;11.20;99.90
33837;DHT22;20140;49.356;8.812;2024-03-08T12:43:54;11.10;99.90
33837;DHT22;20140;49.356;8.812;2024-03-08T12:46:21;11.20;99.90
33837;DHT22;20140;49.356;8.812;2024-03-08T12:48:47;11.60;99.90
33837;DHT22;20140;49.356;8.812;2024-03-08T12:51:13;12.00;99.90
33837;DHT22;20140;49.356;8.812;2024-03-08T12:53:39;11.80;99.90
33837;DHT22;20140;49.356;8.812;2024-03-08T12:56:09;12.00;99.90
33837;DHT22;20140;49.356;8.812;2024-03-08T12:58:36;12.00;99.90
33837;DHT22;20140;49.356;8.812;2024-03-08T13:01:02;12.30;99.90
33837;DHT22;20140;49.356;8.812;2024-03-08T13:03:30;12.50;99.90
33837;DHT22;20140;49.356;8.812;2024-03-08T13:05:56;12.40;99.90
33837;DHT22;20140;49.356;8.812;2024-03-08T13:08:22;12.30;99.90
33837;DHT22;20140;49.356;8.812;2024-03-08T13:10:50;12.90;99.90
33837;DHT22;20140;49.356;8.812;2024-03-08T13:15:42;12.70;99.90
33837;DHT22;20140;49.356;8.812;2024-03-08T13:18:08;13.50;99.90
33837;DHT22;20140;49.356;8.812;2024-03-08T13:20:34;13.40;99.90
33837;DHT22;20140;49.356;8.812;2024-03-08T13:23:02;13.80;99.90
33837;DHT22;20140;49.356;8.812;2024-03-08T13:25:28;14.60;99.90
33837;DHT22;20140;49.356;8.812;2024-03-08T13:27:53;14.70;99.60
33837;DHT22;20140;49.356;8.812;2024-03-08T13:30:21;15.30;99.30
33837;DHT22;20140;49.356;8.812;2024-03-08T13:32:51;14.10;99.80
33837;DHT22;20140;49.356;8.812;2024-03-08T13:35:16;14.10;97.90
33837;DHT22;20140;49.356;8.812;2024-03-08T13:37:49;15.10;98.90
33837;DHT22;20140;49.356;8.812;2024-03-08T13:40:15;14.90;98.90
33837;DHT22;20140;49.356;8.812;2024-03-08T13:42:44;15.70;97.10
33837;DHT22;20140;49.356;8.812;2024-03-08T13:45:09;15.20;96.30
33837;DHT22;20140;49.356;8.812;2024-03-08T13:47:39;15.60;96.20
33837;DHT22;20140;49.356;8.812;2024-03-08T13:50:09;15.20;97.30
33837;DHT22;20140;49.356;8.812;2024-03-08T13:52:37;15.00;96.10
33837;DHT22;20140;49.356;8.812;2024-03-08T13:55:03;16.30;94.70
33837;DHT22;20140;49.356;8.812;2024-03-08T13:57:30;16.90;93.90
33837;DHT22;20140;49.356;8.812;2024-03-08T13:59:57;15.80;94.10
33837;DHT22;20140;49.356;8.812;2024-03-08T14:02:22;15.50;94.00
33837;DHT22;20140;49.356;8.812;2024-03-08T14:04:53;15.80;94.80
33837;DHT22;20140;49.356;8.812;2024-03-08T14:07:20;15.30;94.50
33837;DHT22;20140;49.356;8.812;2024-03-08T14:09:45;15.60;96.20
33837;DHT22;20140;49.356;8.812;2024-03-08T14:12:10;16.20;94.10
33837;DHT22;20140;49.356;8.812;2024-03-08T14:14:36;16.90;92.80
33837;DHT22;20140;49.356;8.812;2024-03-08T14:17:02;16.90;92.90
33837;DHT22;20140;49.356;8.812;2024-03-08T14:19:28;17.30;92.40
33837;DHT22;20140;49.356;8.812;2024-03-08T14:21:53;16.70;91.20
33837;DHT22;20140;49.356;8.812;2024-03-08T14:24:19;17.10;91.00
33837;DHT22;20140;49.356;8.812;2024-03-08T14:26:44;17.20;91.70
33837;DHT22;20140;49.356;8.812;2024-03-08T14:29:10;17.50;91.00
33837;DHT22;20140;49.356;8.812;2024-03-08T14:31:36;17.30;90.40
33837;DHT22;20140;49.356;8.812;2024-03-08T14:34:02;16.50;91.60
33837;DHT22;20140;49.356;8.812;2024-03-08T14:36:29;16.70;91.00
33837;DHT22;20140;49.356;8.812;2024-03-08T14:38:54;16.60;90.80
33837;DHT22;20140;49.356;8.812;2024-03-08T14:41:19;17.30;90.80
33837;DHT22;20140;49.356;8.812;2024-03-08T14:43:45;17.20;90.10
33837;DHT22;20140;49.356;8.812;2024-03-08T14:46:11;17.00;90.00
33837;DHT22;20140;49.356;8.812;2024-03-08T14:48:43;16.80;91.10
33837;DHT22;20140;49.356;8.812;2024-03-08T14:51:08;16.70;88.90
33837;DHT22;20140;49.356;8.812;2024-03-08T14:53:36;17.20;90.30
33837;DHT22;20140;49.356;8.812;2024-03-08T14:56:01;17.10;87.10
33837;DHT22;20140;49.356;8.812;2024-03-08T14:58:27;17.00;89.90
33837;DHT22;20140;49.356;8.812;2024-03-08T15:00:53;16.10;89.50
33837;DHT22;20140;49.356;8.812;2024-03-08T15:03:21;16.60;90.20
33837;DHT22;20140;49.356;8.812;2024-03-08T15:05:50;16.70;88.20
33837;DHT22;20140;49.356;8.812;2024-03-08T15:08:15;16.40;89.80
33837;DHT22;20140;49.356;8.812;2024-03-08T15:10:45;16.20;90.40
33837;DHT22;20140;49.356;8.812;2024-03-08T15:13:11;16.20;90.00
33837;DHT22;20140;49.356;8.812;2024-03-08T15:15:46;17.20;88.30
33837;DHT22;20140;49.356;8.812;2024-03-08T15:18:11;17.70;86.30
33837;DHT22;20140;49.356;8.812;2024-03-08T15:20:37;18.00;87.40
33837;DHT22;20140;49.356;8.812;2024-03-08T15:23:03;17.60;84.50
33837;DHT22;20140;49.356;8.812;2024-03-08T15:25:29;17.50;87.60
33837;DHT22;20140;49.356;8.812;2024-03-08T15:27:56;18.00;85.40
33837;DHT22;20140;49.356;8.812;2024-03-08T15:30:23;17.40;85.80
33837;DHT22;20140;49.356;8.812;2024-03-08T15:32:52;17.30;84.70
33837;DHT22;20140;49.356;8.812;2024-03-08T15:35:28;16.80;86.70
33837;DHT22;20140;49.356;8.812;2024-03-08T15:37:53;16.90;86.30
33837;DHT22;20140;49.356;8.812;2024-03-08T15:40:23;16.80;87.70
33837;DHT22;20140;49.356;8.812;2024-03-08T15:45:20;17.30;88.50
33837;DHT22;20140;49.356;8.812;2024-03-08T15:47:45;17.30;87.20
33837;DHT22;20140;49.356;8.812;2024-03-08T15:50:11;17.10;85.60
33837;DHT22;20140;49.356;8.812;2024-03-08T15:52:42;17.20;85.60